West View, Pennsylvania
Current Conditions -  °F | °C
As of 7:51 PM on Monday 24 Nov 2014 (Local Time) from KPIT Reporting Station
Few Clouds Few Clouds  
Wind Chill: 51°   Ceiling: Unl
Heat Index: 51°   Visibility: 10mi
Dew Point: 39°   Wind: 15mph
Humidity: 63%   Direction: 250°WSW
Pressure: 29.71"   Gusts: 25mph
Location:  40.5198°N, 80.0388°W
Report Text: KPIT 250051Z 25013G22KT 10SM FEW022 11/04 A2971 RMK AO2 SLP067 T01060039
Loading
Personal Weather Stations






























Interactive Weather Map New forecast layout! Learn more

10-Day Weather Forecast

Advertisements
Track Severe Weather on mobile